createdAt,value
2023-02-01T00:02:19.090Z,54.13
2023-02-01T00:07:20.927Z,54.66
2023-02-01T00:12:22.754Z,54.53
2023-02-01T00:17:25.105Z,54.40
2023-02-01T00:22:26.939Z,54.85
2023-02-01T00:27:28.883Z,54.83
2023-02-01T00:32:32.992Z,54.87
2023-02-01T00:37:34.871Z,54.72
2023-02-01T00:42:36.811Z,55.01
2023-02-01T00:47:38.698Z,54.29
2023-02-01T00:52:40.556Z,54.44
2023-02-01T00:57:42.401Z,54.32
2023-02-01T01:02:44.250Z,54.06
2023-02-01T01:07:46.121Z,54.10
2023-02-01T01:12:48.227Z,53.85
2023-02-01T01:17:50.073Z,54.05
2023-02-01T01:22:51.934Z,53.68
2023-02-01T01:27:53.882Z,53.94
2023-02-01T01:32:55.752Z,53.75
2023-02-01T01:37:57.972Z,53.53
2023-02-01T01:43:00.150Z,53.49
2023-02-01T01:48:20.003Z,53.29
2023-02-01T01:53:28.828Z,52.93
2023-02-01T01:58:34.525Z,53.17
2023-02-01T02:03:43.407Z,52.96
2023-02-01T02:08:45.586Z,52.66
2023-02-01T02:13:55.193Z,52.20
2023-02-01T02:19:32.217Z,52.23
2023-02-01T02:24:48.060Z,52.01
2023-02-01T02:30:11.728Z,52.12
2023-02-01T02:35:37.546Z,51.70
2023-02-01T02:41:34.720Z,51.79
2023-02-01T02:47:01.512Z,52.13
2023-02-01T02:52:29.461Z,52.15
2023-02-01T02:57:54.786Z,52.26
2023-02-01T03:03:15.443Z,52.04
2023-02-01T03:08:20.847Z,52.07
2023-02-01T03:13:34.359Z,52.09
2023-02-01T03:18:52.084Z,51.58
2023-02-01T03:24:00.891Z,51.82
2023-02-01T03:29:15.246Z,51.92
2023-02-01T03:34:18.765Z,51.68
2023-02-01T03:39:35.803Z,51.85
2023-02-01T03:44:48.138Z,51.48
2023-02-01T03:49:58.790Z,51.39
2023-02-01T03:55:02.612Z,51.38
2023-02-01T04:00:12.831Z,51.39
2023-02-01T04:05:20.108Z,51.30
2023-02-01T04:10:30.037Z,51.33
2023-02-01T04:15:31.940Z,51.44
2023-02-01T04:20:33.804Z,51.08
2023-02-01T04:25:35.656Z,50.66
2023-02-01T04:30:37.625Z,50.65
2023-02-01T04:35:39.501Z,50.74
2023-02-01T04:40:41.325Z,50.49
2023-02-01T04:45:47.417Z,50.33
2023-02-01T04:50:49.812Z,50.56
2023-02-01T04:55:51.667Z,50.47
2023-02-01T05:00:53.563Z,50.43
2023-02-01T05:05:55.405Z,50.33
2023-02-01T05:10:57.482Z,49.90
2023-02-01T05:15:59.368Z,49.97
2023-02-01T05:21:02.108Z,49.66
2023-02-01T05:26:05.328Z,49.63
2023-02-01T05:31:11.702Z,49.83
2023-02-01T05:36:13.745Z,49.73
2023-02-01T05:41:15.645Z,49.77
2023-02-01T05:46:17.497Z,49.58
2023-02-01T05:51:19.488Z,49.83
2023-02-01T05:56:21.369Z,49.60
2023-02-01T06:01:23.234Z,49.96
2023-02-01T06:06:25.033Z,49.74
2023-02-01T06:11:34.298Z,49.91
2023-02-01T06:16:36.191Z,49.63
2023-02-01T06:21:38.182Z,50.02
2023-02-01T06:26:41.163Z,49.87
2023-02-01T06:31:43.920Z,49.86
2023-02-01T06:36:45.805Z,50.31
2023-02-01T06:41:51.502Z,50.02
2023-02-01T06:46:53.399Z,50.41
2023-02-01T06:51:55.288Z,50.78
2023-02-01T06:56:57.080Z,50.81
2023-02-01T07:01:58.970Z,51.34
2023-02-01T07:07:00.878Z,51.28
2023-02-01T07:12:02.715Z,51.91
2023-02-01T07:17:04.539Z,52.50
2023-02-01T07:22:06.427Z,52.79
2023-02-01T07:27:08.285Z,53.64
2023-02-01T07:32:10.265Z,54.77
2023-02-01T07:37:12.192Z,54.75
2023-02-01T07:42:14.036Z,55.82
2023-02-01T07:47:15.855Z,56.23
2023-02-01T07:52:17.884Z,56.28
2023-02-01T07:57:20.663Z,56.42
2023-02-01T08:02:22.511Z,56.42
2023-02-01T08:07:24.429Z,55.78
2023-02-01T08:12:26.560Z,55.75
2023-02-01T08:17:29.542Z,56.39
2023-02-01T08:22:34.382Z,56.32
2023-02-01T08:27:37.001Z,56.46
2023-02-01T08:32:39.173Z,56.78
2023-02-01T08:37:41.424Z,56.59
2023-02-01T08:42:52.289Z,55.72
2023-02-01T08:47:54.666Z,55.06
2023-02-01T08:52:56.603Z,54.53
2023-02-01T08:57:58.552Z,54.02
2023-02-01T09:03:00.437Z,53.69
2023-02-01T09:08:02.272Z,53.75
2023-02-01T09:13:04.263Z,53.08
2023-02-01T09:18:06.157Z,53.24
2023-02-01T09:23:08.486Z,53.47
2023-02-01T09:28:10.426Z,54.14
2023-02-01T09:33:12.277Z,54.49
2023-02-01T09:38:14.137Z,54.81
2023-02-01T09:43:23.951Z,55.87
2023-02-01T09:48:33.292Z,56.96
2023-02-01T09:53:39.625Z,57.01
2023-02-01T09:58:57.643Z,58.10
2023-02-01T10:04:06.442Z,58.75
2023-02-01T10:09:42.505Z,59.49
2023-02-01T10:15:15.413Z,60.05
2023-02-01T10:20:41.575Z,59.91
2023-02-01T10:25:57.466Z,60.40
2023-02-01T10:30:59.928Z,60.29
2023-02-01T10:36:18.097Z,60.78
2023-02-01T10:41:23.013Z,60.93
2023-02-01T10:46:25.730Z,61.22
2023-02-01T10:51:34.899Z,61.14
2023-02-01T10:56:39.449Z,60.33
2023-02-01T11:01:43.051Z,60.04
2023-02-01T11:06:46.745Z,59.61
2023-02-01T11:11:48.580Z,59.07
2023-02-01T11:17:01.186Z,58.91
2023-02-01T11:22:05.405Z,58.41
2023-02-01T11:27:18.858Z,58.05
2023-02-01T11:38:15.284Z,57.74
2023-02-01T11:43:29.941Z,57.55
2023-02-01T11:48:33.783Z,56.74
2023-02-01T11:53:54.451Z,56.50
2023-02-01T11:59:17.389Z,56.23
2023-02-01T12:04:19.164Z,55.90
2023-02-01T12:09:36.758Z,56.12
2023-02-01T12:14:41.609Z,55.70
2023-02-01T12:20:11.478Z,55.68
2023-02-01T12:25:37.632Z,55.24
2023-02-01T12:31:06.321Z,54.97
2023-02-01T12:36:39.680Z,54.19
2023-02-01T12:42:04.514Z,54.82
2023-02-01T12:47:21.634Z,54.62
2023-02-01T12:52:35.801Z,54.30
2023-02-01T12:57:43.913Z,54.03
2023-02-01T13:02:55.546Z,53.90
2023-02-01T13:08:32.815Z,53.62
2023-02-01T13:13:47.679Z,52.99
2023-02-01T13:18:53.305Z,53.11
2023-02-01T13:23:55.606Z,52.74
2023-02-01T13:29:17.996Z,53.05
2023-02-01T13:34:47.513Z,51.77
2023-02-01T13:40:17.929Z,51.57
2023-02-01T13:45:26.346Z,51.04
2023-02-01T13:50:31.723Z,51.17
2023-02-01T13:55:37.349Z,51.21
2023-02-01T14:00:41.402Z,50.35
2023-02-01T14:05:44.947Z,50.45
2023-02-01T14:10:48.507Z,49.30
2023-02-01T14:16:17.791Z,49.40
2023-02-01T14:21:35.155Z,49.38
2023-02-01T14:26:46.847Z,48.82
2023-02-01T14:32:03.892Z,49.26
2023-02-01T14:37:09.875Z,49.12
2023-02-01T14:42:23.506Z,49.15
2023-02-01T14:47:25.312Z,49.12
2023-02-01T14:52:46.170Z,48.95
2023-02-01T14:57:51.619Z,49.02
2023-02-01T15:02:55.470Z,48.63
2023-02-01T15:08:01.480Z,48.90
2023-02-01T15:13:03.335Z,49.19
2023-02-01T15:18:05.222Z,48.85
2023-02-01T15:23:18.047Z,49.48
2023-02-01T15:28:20.774Z,50.64
2023-02-01T15:33:22.755Z,51.07
2023-02-01T15:38:24.581Z,51.09
2023-02-01T15:43:28.395Z,51.12
2023-02-01T15:48:40.714Z,51.22
2023-02-01T15:53:48.214Z,51.49
2023-02-01T15:58:54.299Z,51.92
2023-02-01T16:04:16.226Z,52.60
2023-02-01T16:09:21.096Z,53.95
2023-02-01T16:14:24.107Z,55.58
2023-02-01T16:19:29.277Z,56.19
2023-02-01T16:24:32.791Z,56.93
2023-02-01T16:29:34.964Z,57.52
2023-02-01T16:34:37.940Z,57.90
2023-02-01T16:39:40.004Z,57.88
2023-02-01T16:44:42.163Z,58.08
2023-02-01T16:49:44.963Z,57.83
2023-02-01T16:54:47.056Z,58.08
2023-02-01T16:59:49.262Z,58.13
2023-02-01T17:04:51.199Z,58.11
2023-02-01T17:09:53.386Z,58.32
2023-02-01T17:14:55.335Z,58.15
2023-02-01T17:19:57.313Z,58.02
2023-02-01T17:24:59.467Z,58.68
2023-02-01T17:30:04.294Z,58.49
2023-02-01T17:35:14.796Z,59.02
2023-02-01T17:40:17.091Z,59.57
2023-02-01T17:45:37.625Z,60.04
2023-02-01T17:50:40.105Z,59.55
2023-02-01T17:55:45.262Z,59.02
2023-02-01T18:00:48.883Z,59.26
2023-02-01T18:05:53.705Z,59.78
2023-02-01T18:11:00.850Z,59.16
2023-02-01T18:16:04.668Z,59.37
2023-02-01T18:21:06.610Z,59.37
2023-02-01T18:26:12.155Z,59.50
2023-02-01T18:31:25.775Z,59.13
2023-02-01T18:36:31.333Z,59.06
2023-02-01T18:41:34.248Z,58.95
2023-02-01T18:46:36.207Z,58.84
2023-02-01T18:51:38.559Z,59.05
2023-02-01T18:56:40.495Z,59.20
2023-02-01T19:01:44.481Z,59.06
2023-02-01T19:06:46.941Z,59.17
2023-02-01T19:11:49.255Z,59.29
2023-02-01T19:16:51.262Z,59.12
2023-02-01T19:21:53.128Z,58.69
2023-02-01T19:26:55.286Z,58.89
2023-02-01T19:31:57.763Z,58.92
2023-02-01T19:37:00.887Z,58.65
2023-02-01T19:42:04.250Z,59.14
2023-02-01T19:47:06.347Z,58.96
2023-02-01T19:52:08.217Z,58.44
2023-02-01T19:57:10.184Z,58.69
2023-02-01T20:02:15.282Z,58.55
2023-02-01T20:07:17.206Z,58.42
2023-02-01T20:12:19.100Z,58.67
2023-02-01T20:17:20.937Z,58.11
2023-02-01T20:22:22.765Z,58.05
2023-02-01T20:27:26.205Z,57.75
2023-02-01T20:32:28.151Z,57.59
2023-02-01T20:37:30.207Z,57.90
2023-02-01T20:42:32.098Z,57.81
2023-02-01T20:47:34.015Z,58.05
2023-02-01T20:52:36.047Z,58.53
2023-02-01T20:57:37.987Z,58.24
2023-02-01T21:02:40.024Z,58.17
2023-02-01T21:07:42.127Z,58.18
2023-02-01T21:12:44.016Z,58.03
2023-02-01T21:17:45.842Z,58.01
2023-02-01T21:22:47.681Z,57.96
2023-02-01T21:27:49.588Z,58.19
2023-02-01T21:32:51.769Z,57.94
2023-02-01T21:37:53.641Z,58.05
2023-02-01T21:42:55.612Z,58.54
2023-02-01T21:47:57.558Z,58.76
2023-02-01T21:52:59.364Z,58.89
2023-02-01T21:58:01.256Z,58.07
2023-02-01T22:03:03.084Z,58.74
2023-02-01T22:08:05.267Z,58.72
2023-02-01T22:13:07.884Z,59.08
2023-02-01T22:18:09.825Z,59.51
2023-02-01T22:23:11.660Z,59.47
2023-02-01T22:28:33.013Z,59.54
2023-02-01T22:33:35.498Z,59.88
2023-02-01T22:38:37.413Z,59.31
2023-02-01T22:43:39.745Z,59.39
2023-02-01T22:48:43.265Z,59.22
2023-02-01T22:53:45.668Z,59.11
2023-02-01T22:58:47.467Z,59.38
2023-02-01T23:03:49.524Z,58.83
2023-02-01T23:08:58.168Z,58.77
2023-02-01T23:14:00.047Z,58.54
2023-02-01T23:19:02.371Z,58.10
2023-02-01T23:24:07.402Z,58.15
2023-02-01T23:29:16.130Z,57.90
2023-02-01T23:34:17.892Z,58.38
2023-02-01T23:39:19.639Z,58.80
2023-02-01T23:44:21.446Z,58.81
2023-02-01T23:49:23.219Z,58.95
2023-02-01T23:54:25.012Z,58.62
2023-02-01T23:59:26.965Z,58.53
